sensor_id;sensor_type;location;lat;lon;timestamp;temperature;humidity
11426;DHT22;5769;47.998;7.788;2022-10-15T00:02:02;20.40;75.20
11426;DHT22;5769;47.998;7.788;2022-10-15T00:04:29;20.40;75.20
11426;DHT22;5769;47.998;7.788;2022-10-15T00:06:56;20.40;75.20
11426;DHT22;5769;47.998;7.788;2022-10-15T00:09:22;20.40;75.20
11426;DHT22;5769;47.998;7.788;2022-10-15T00:11:49;20.40;75.20
11426;DHT22;5769;47.998;7.788;2022-10-15T00:14:16;20.40;75.20
11426;DHT22;5769;47.998;7.788;2022-10-15T00:16:44;20.40;75.20
11426;DHT22;5769;47.998;7.788;2022-10-15T00:19:11;20.40;75.90
11426;DHT22;5769;47.998;7.788;2022-10-15T00:21:38;20.40;75.20
11426;DHT22;5769;47.998;7.788;2022-10-15T00:24:06;20.40;75.20
11426;DHT22;5769;47.998;7.788;2022-10-15T00:26:33;20.40;75.20
11426;DHT22;5769;47.998;7.788;2022-10-15T00:29:01;20.40;75.20
11426;DHT22;5769;47.998;7.788;2022-10-15T00:31:29;20.40;75.20
11426;DHT22;5769;47.998;7.788;2022-10-15T00:34:00;20.40;75.20
11426;DHT22;5769;47.998;7.788;2022-10-15T00:36:29;20.40;75.20
11426;DHT22;5769;47.998;7.788;2022-10-15T00:38:56;20.40;75.60
11426;DHT22;5769;47.998;7.788;2022-10-15T00:41:25;20.40;75.20
11426;DHT22;5769;47.998;7.788;2022-10-15T00:43:54;20.40;75.20
11426;DHT22;5769;47.998;7.788;2022-10-15T00:46:24;20.40;75.30
11426;DHT22;5769;47.998;7.788;2022-10-15T00:48:55;20.40;75.20
11426;DHT22;5769;47.998;7.788;2022-10-15T00:51:28;20.40;75.30
11426;DHT22;5769;47.998;7.788;2022-10-15T00:53:57;20.40;75.20
11426;DHT22;5769;47.998;7.788;2022-10-15T00:56:26;20.40;75.30
11426;DHT22;5769;47.998;7.788;2022-10-15T00:58:53;20.40;75.20
11426;DHT22;5769;47.998;7.788;2022-10-15T01:01:21;20.40;75.20
11426;DHT22;5769;47.998;7.788;2022-10-15T01:03:50;20.40;75.20
11426;DHT22;5769;47.998;7.788;2022-10-15T01:06:17;20.40;75.20
11426;DHT22;5769;47.998;7.788;2022-10-15T01:08:45;20.40;75.20
11426;DHT22;5769;47.998;7.788;2022-10-15T01:11:27;20.40;75.20
11426;DHT22;5769;47.998;7.788;2022-10-15T01:14:00;20.40;75.20
11426;DHT22;5769;47.998;7.788;2022-10-15T01:16:35;20.40;75.20
11426;DHT22;5769;47.998;7.788;2022-10-15T01:19:14;20.40;75.20
11426;DHT22;5769;47.998;7.788;2022-10-15T01:21:50;20.40;75.20
11426;DHT22;5769;47.998;7.788;2022-10-15T01:24:44;20.40;75.20
11426;DHT22;5769;47.998;7.788;2022-10-15T01:27:35;20.40;75.20
11426;DHT22;5769;47.998;7.788;2022-10-15T01:30:26;20.40;75.20
11426;DHT22;5769;47.998;7.788;2022-10-15T01:33:02;20.40;75.90
11426;DHT22;5769;47.998;7.788;2022-10-15T01:35:42;20.40;75.20
11426;DHT22;5769;47.998;7.788;2022-10-15T01:38:22;20.40;75.20
11426;DHT22;5769;47.998;7.788;2022-10-15T01:40:52;20.40;75.10
11426;DHT22;5769;47.998;7.788;2022-10-15T01:43:25;20.40;75.20
11426;DHT22;5769;47.998;7.788;2022-10-15T01:45:57;20.40;75.10
11426;DHT22;5769;47.998;7.788;2022-10-15T01:48:28;20.40;75.20
11426;DHT22;5769;47.998;7.788;2022-10-15T01:50:58;20.40;75.20
11426;DHT22;5769;47.998;7.788;2022-10-15T01:53:27;20.40;75.20
11426;DHT22;5769;47.998;7.788;2022-10-15T01:55:56;20.40;75.20
11426;DHT22;5769;47.998;7.788;2022-10-15T01:58:23;20.40;75.20
11426;DHT22;5769;47.998;7.788;2022-10-15T02:00:52;20.30;75.10
11426;DHT22;5769;47.998;7.788;2022-10-15T02:03:21;20.40;75.10
11426;DHT22;5769;47.998;7.788;2022-10-15T02:05:52;20.40;75.20
11426;DHT22;5769;47.998;7.788;2022-10-15T02:08:25;20.40;75.10
11426;DHT22;5769;47.998;7.788;2022-10-15T02:10:57;20.30;75.20
11426;DHT22;5769;47.998;7.788;2022-10-15T02:13:28;20.40;75.20
11426;DHT22;5769;47.998;7.788;2022-10-15T02:16:03;20.40;75.20
11426;DHT22;5769;47.998;7.788;2022-10-15T02:18:39;20.40;75.20
11426;DHT22;5769;47.998;7.788;2022-10-15T02:21:10;20.40;75.10
11426;DHT22;5769;47.998;7.788;2022-10-15T02:23:44;20.40;75.20
11426;DHT22;5769;47.998;7.788;2022-10-15T02:26:13;20.40;75.10
11426;DHT22;5769;47.998;7.788;2022-10-15T02:28:43;20.40;75.20
11426;DHT22;5769;47.998;7.788;2022-10-15T02:31:12;20.40;75.20
11426;DHT22;5769;47.998;7.788;2022-10-15T02:33:41;20.40;75.20
11426;DHT22;5769;47.998;7.788;2022-10-15T02:36:08;20.40;75.20
11426;DHT22;5769;47.998;7.788;2022-10-15T02:38:36;20.40;75.20
11426;DHT22;5769;47.998;7.788;2022-10-15T02:41:04;20.40;75.20
11426;DHT22;5769;47.998;7.788;2022-10-15T02:43:33;20.40;75.20
11426;DHT22;5769;47.998;7.788;2022-10-15T02:46:00;20.30;75.20
11426;DHT22;5769;47.998;7.788;2022-10-15T02:48:27;20.40;75.20
11426;DHT22;5769;47.998;7.788;2022-10-15T02:50:55;20.40;75.20
11426;DHT22;5769;47.998;7.788;2022-10-15T02:53:22;20.40;75.20
11426;DHT22;5769;47.998;7.788;2022-10-15T02:55:48;20.40;75.30
11426;DHT22;5769;47.998;7.788;2022-10-15T02:58:15;20.30;75.20
11426;DHT22;5769;47.998;7.788;2022-10-15T03:00:42;20.40;75.20
11426;DHT22;5769;47.998;7.788;2022-10-15T03:03:09;20.30;75.20
11426;DHT22;5769;47.998;7.788;2022-10-15T03:05:36;20.40;75.30
11426;DHT22;5769;47.998;7.788;2022-10-15T03:08:04;20.30;75.20
11426;DHT22;5769;47.998;7.788;2022-10-15T03:10:31;20.40;75.30
11426;DHT22;5769;47.998;7.788;2022-10-15T03:13:01;20.30;75.20
11426;DHT22;5769;47.998;7.788;2022-10-15T03:15:28;20.30;75.20
11426;DHT22;5769;47.998;7.788;2022-10-15T03:17:55;20.40;75.30
11426;DHT22;5769;47.998;7.788;2022-10-15T03:20:21;20.40;75.20
11426;DHT22;5769;47.998;7.788;2022-10-15T03:22:48;20.40;75.30
11426;DHT22;5769;47.998;7.788;2022-10-15T03:25:16;20.30;75.20
11426;DHT22;5769;47.998;7.788;2022-10-15T03:27:43;20.30;75.20
11426;DHT22;5769;47.998;7.788;2022-10-15T03:30:10;20.30;75.20
11426;DHT22;5769;47.998;7.788;2022-10-15T03:32:37;20.30;75.20
11426;DHT22;5769;47.998;7.788;2022-10-15T03:35:04;20.40;75.30
11426;DHT22;5769;47.998;7.788;2022-10-15T03:37:31;20.40;75.20
11426;DHT22;5769;47.998;7.788;2022-10-15T03:39:57;20.40;75.20
11426;DHT22;5769;47.998;7.788;2022-10-15T03:42:25;20.40;75.30
11426;DHT22;5769;47.998;7.788;2022-10-15T03:44:52;20.40;75.30
11426;DHT22;5769;47.998;7.788;2022-10-15T03:47:19;20.40;75.30
11426;DHT22;5769;47.998;7.788;2022-10-15T03:49:45;20.40;75.30
11426;DHT22;5769;47.998;7.788;2022-10-15T03:52:12;20.40;75.30
11426;DHT22;5769;47.998;7.788;2022-10-15T03:54:39;20.30;75.20
11426;DHT22;5769;47.998;7.788;2022-10-15T03:57:06;20.30;75.20
11426;DHT22;5769;47.998;7.788;2022-10-15T03:59:34;20.40;75.20
11426;DHT22;5769;47.998;7.788;2022-10-15T04:02:00;20.30;75.20
11426;DHT22;5769;47.998;7.788;2022-10-15T04:04:27;20.40;75.20
11426;DHT22;5769;47.998;7.788;2022-10-15T04:06:54;20.40;75.30
11426;DHT22;5769;47.998;7.788;2022-10-15T04:09:20;20.30;75.20
11426;DHT22;5769;47.998;7.788;2022-10-15T04:11:47;20.30;75.20
11426;DHT22;5769;47.998;7.788;2022-10-15T04:14:14;20.30;75.20
11426;DHT22;5769;47.998;7.788;2022-10-15T04:16:42;20.30;75.20
11426;DHT22;5769;47.998;7.788;2022-10-15T04:19:08;20.30;75.20
11426;DHT22;5769;47.998;7.788;2022-10-15T04:21:35;20.30;75.20
11426;DHT22;5769;47.998;7.788;2022-10-15T04:24:02;20.30;75.10
11426;DHT22;5769;47.998;7.788;2022-10-15T04:26:29;20.30;75.10
11426;DHT22;5769;47.998;7.788;2022-10-15T04:28:55;20.30;75.10
11426;DHT22;5769;47.998;7.788;2022-10-15T04:31:22;20.30;75.10
11426;DHT22;5769;47.998;7.788;2022-10-15T04:33:50;20.30;75.10
11426;DHT22;5769;47.998;7.788;2022-10-15T04:36:17;20.30;75.10
11426;DHT22;5769;47.998;7.788;2022-10-15T04:38:44;20.30;75.10
11426;DHT22;5769;47.998;7.788;2022-10-15T04:41:11;20.30;75.10
11426;DHT22;5769;47.998;7.788;2022-10-15T04:43:38;20.30;75.10
11426;DHT22;5769;47.998;7.788;2022-10-15T04:46:07;20.30;75.10
11426;DHT22;5769;47.998;7.788;2022-10-15T04:48:35;20.30;75.00
11426;DHT22;5769;47.998;7.788;2022-10-15T04:51:05;20.30;75.00
11426;DHT22;5769;47.998;7.788;2022-10-15T04:53:32;20.30;75.10
11426;DHT22;5769;47.998;7.788;2022-10-15T04:56:01;20.30;75.70
11426;DHT22;5769;47.998;7.788;2022-10-15T04:58:29;20.30;75.10
11426;DHT22;5769;47.998;7.788;2022-10-15T05:00:59;20.30;75.00
11426;DHT22;5769;47.998;7.788;2022-10-15T05:03:26;20.30;75.00
11426;DHT22;5769;47.998;7.788;2022-10-15T05:05:53;20.30;75.00
11426;DHT22;5769;47.998;7.788;2022-10-15T05:08:21;20.30;75.00
11426;DHT22;5769;47.998;7.788;2022-10-15T05:10:47;20.30;75.00
11426;DHT22;5769;47.998;7.788;2022-10-15T05:13:14;20.30;75.00
11426;DHT22;5769;47.998;7.788;2022-10-15T05:15:41;20.30;75.00
11426;DHT22;5769;47.998;7.788;2022-10-15T05:18:07;20.30;75.00
11426;DHT22;5769;47.998;7.788;2022-10-15T05:20:34;20.30;75.10
11426;DHT22;5769;47.998;7.788;2022-10-15T05:23:01;20.30;75.00
11426;DHT22;5769;47.998;7.788;2022-10-15T05:25:30;20.30;75.10
11426;DHT22;5769;47.998;7.788;2022-10-15T05:27:56;20.30;75.10
11426;DHT22;5769;47.998;7.788;2022-10-15T05:30:23;20.30;75.10
11426;DHT22;5769;47.998;7.788;2022-10-15T05:32:50;20.30;75.10
11426;DHT22;5769;47.998;7.788;2022-10-15T05:35:17;20.30;75.00
11426;DHT22;5769;47.998;7.788;2022-10-15T05:37:44;20.30;75.00
11426;DHT22;5769;47.998;7.788;2022-10-15T05:40:11;20.30;75.00
11426;DHT22;5769;47.998;7.788;2022-10-15T05:42:39;20.30;75.00
11426;DHT22;5769;47.998;7.788;2022-10-15T05:45:07;20.30;75.00
11426;DHT22;5769;47.998;7.788;2022-10-15T05:47:34;20.30;75.00
11426;DHT22;5769;47.998;7.788;2022-10-15T05:50:00;20.30;75.00
11426;DHT22;5769;47.998;7.788;2022-10-15T05:52:27;20.30;75.00
11426;DHT22;5769;47.998;7.788;2022-10-15T05:54:54;20.30;75.00
11426;DHT22;5769;47.998;7.788;2022-10-15T05:57:21;20.30;75.00
11426;DHT22;5769;47.998;7.788;2022-10-15T05:59:49;20.30;75.00
11426;DHT22;5769;47.998;7.788;2022-10-15T06:02:15;20.30;75.00
11426;DHT22;5769;47.998;7.788;2022-10-15T06:04:42;20.30;75.00
11426;DHT22;5769;47.998;7.788;2022-10-15T06:07:09;20.30;75.00
11426;DHT22;5769;47.998;7.788;2022-10-15T06:09:35;20.30;75.00
11426;DHT22;5769;47.998;7.788;2022-10-15T06:12:02;20.30;75.00
11426;DHT22;5769;47.998;7.788;2022-10-15T06:14:29;20.30;75.00
11426;DHT22;5769;47.998;7.788;2022-10-15T06:16:57;20.30;75.00
11426;DHT22;5769;47.998;7.788;2022-10-15T06:19:24;20.30;75.00
11426;DHT22;5769;47.998;7.788;2022-10-15T06:21:50;20.30;75.00
11426;DHT22;5769;47.998;7.788;2022-10-15T06:24:17;20.30;75.00
11426;DHT22;5769;47.998;7.788;2022-10-15T06:26:44;20.30;75.00
11426;DHT22;5769;47.998;7.788;2022-10-15T06:29:10;20.30;74.90
11426;DHT22;5769;47.998;7.788;2022-10-15T06:31:37;20.30;75.00
11426;DHT22;5769;47.998;7.788;2022-10-15T06:34:06;20.30;75.00
11426;DHT22;5769;47.998;7.788;2022-10-15T06:36:32;20.30;75.00
11426;DHT22;5769;47.998;7.788;2022-10-15T06:38:59;20.30;75.00
11426;DHT22;5769;47.998;7.788;2022-10-15T06:41:26;20.30;74.90
11426;DHT22;5769;47.998;7.788;2022-10-15T06:43:52;20.30;74.90
11426;DHT22;5769;47.998;7.788;2022-10-15T06:46:19;20.30;74.90
11426;DHT22;5769;47.998;7.788;2022-10-15T06:48:46;20.30;74.90
11426;DHT22;5769;47.998;7.788;2022-10-15T06:51:15;20.30;74.90
11426;DHT22;5769;47.998;7.788;2022-10-15T06:53:42;20.30;74.90
11426;DHT22;5769;47.998;7.788;2022-10-15T06:56:08;20.30;74.90
11426;DHT22;5769;47.998;7.788;2022-10-15T06:58:35;20.30;74.90
11426;DHT22;5769;47.998;7.788;2022-10-15T07:01:03;20.30;74.90
11426;DHT22;5769;47.998;7.788;2022-10-15T07:03:30;20.30;74.80
11426;DHT22;5769;47.998;7.788;2022-10-15T07:06:00;20.30;74.80
11426;DHT22;5769;47.998;7.788;2022-10-15T07:08:29;20.30;74.80
11426;DHT22;5769;47.998;7.788;2022-10-15T07:10:56;20.30;74.80
11426;DHT22;5769;47.998;7.788;2022-10-15T07:13:22;20.30;74.80
11426;DHT22;5769;47.998;7.788;2022-10-15T07:15:49;20.30;74.80
11426;DHT22;5769;47.998;7.788;2022-10-15T07:18:18;20.30;74.80
11426;DHT22;5769;47.998;7.788;2022-10-15T07:20:45;20.30;74.70
11426;DHT22;5769;47.998;7.788;2022-10-15T07:23:11;20.30;74.70
11426;DHT22;5769;47.998;7.788;2022-10-15T07:25:39;20.30;74.70
11426;DHT22;5769;47.998;7.788;2022-10-15T07:28:06;20.30;74.80
11426;DHT22;5769;47.998;7.788;2022-10-15T07:30:32;20.30;74.80
11426;DHT22;5769;47.998;7.788;2022-10-15T07:32:59;20.30;74.70
11426;DHT22;5769;47.998;7.788;2022-10-15T07:35:26;20.30;74.60
11426;DHT22;5769;47.998;7.788;2022-10-15T07:37:53;20.30;74.60
11426;DHT22;5769;47.998;7.788;2022-10-15T07:40:19;20.30;74.60
11426;DHT22;5769;47.998;7.788;2022-10-15T07:42:52;20.30;74.60
11426;DHT22;5769;47.998;7.788;2022-10-15T07:45:19;20.30;74.60
11426;DHT22;5769;47.998;7.788;2022-10-15T07:47:46;20.30;74.50
11426;DHT22;5769;47.998;7.788;2022-10-15T07:50:12;20.30;74.50
11426;DHT22;5769;47.998;7.788;2022-10-15T07:52:39;20.30;74.60
11426;DHT22;5769;47.998;7.788;2022-10-15T07:55:06;20.30;74.50
11426;DHT22;5769;47.998;7.788;2022-10-15T07:57:32;20.30;74.60
11426;DHT22;5769;47.998;7.788;2022-10-15T08:00:00;20.30;74.60
11426;DHT22;5769;47.998;7.788;2022-10-15T08:02:27;20.30;74.60
11426;DHT22;5769;47.998;7.788;2022-10-15T08:04:53;20.30;74.60
11426;DHT22;5769;47.998;7.788;2022-10-15T08:07:20;20.30;74.60
11426;DHT22;5769;47.998;7.788;2022-10-15T08:09:46;20.30;74.50
11426;DHT22;5769;47.998;7.788;2022-10-15T08:12:13;20.30;74.50
11426;DHT22;5769;47.998;7.788;2022-10-15T08:14:39;20.30;74.50
11426;DHT22;5769;47.998;7.788;2022-10-15T08:17:07;20.30;74.50
11426;DHT22;5769;47.998;7.788;2022-10-15T08:19:34;20.30;74.50
11426;DHT22;5769;47.998;7.788;2022-10-15T08:22:01;20.30;74.60
11426;DHT22;5769;47.998;7.788;2022-10-15T08:24:28;20.30;74.60
11426;DHT22;5769;47.998;7.788;2022-10-15T08:26:55;20.20;74.40
11426;DHT22;5769;47.998;7.788;2022-10-15T08:29:22;20.20;74.40
11426;DHT22;5769;47.998;7.788;2022-10-15T08:31:48;20.30;74.50
11426;DHT22;5769;47.998;7.788;2022-10-15T08:34:16;20.30;74.50
11426;DHT22;5769;47.998;7.788;2022-10-15T08:36:43;20.30;74.50
11426;DHT22;5769;47.998;7.788;2022-10-15T08:39:09;20.30;74.50
11426;DHT22;5769;47.998;7.788;2022-10-15T08:41:36;20.30;74.50
11426;DHT22;5769;47.998;7.788;2022-10-15T08:44:03;20.30;74.50
11426;DHT22;5769;47.998;7.788;2022-10-15T08:46:32;20.30;74.50
11426;DHT22;5769;47.998;7.788;2022-10-15T08:49:00;20.30;74.50
11426;DHT22;5769;47.998;7.788;2022-10-15T08:51:29;20.30;74.50
11426;DHT22;5769;47.998;7.788;2022-10-15T08:53:57;20.30;74.50
11426;DHT22;5769;47.998;7.788;2022-10-15T08:56:26;20.30;74.50
11426;DHT22;5769;47.998;7.788;2022-10-15T08:58:56;20.20;74.50
11426;DHT22;5769;47.998;7.788;2022-10-15T09:01:26;20.30;74.60
11426;DHT22;5769;47.998;7.788;2022-10-15T09:03:57;20.30;74.60
11426;DHT22;5769;47.998;7.788;2022-10-15T09:06:29;20.30;74.60
11426;DHT22;5769;47.998;7.788;2022-10-15T09:08:58;20.30;74.60
11426;DHT22;5769;47.998;7.788;2022-10-15T09:11:35;20.30;74.50
11426;DHT22;5769;47.998;7.788;2022-10-15T09:14:04;20.30;74.50
11426;DHT22;5769;47.998;7.788;2022-10-15T09:16:33;20.30;74.50
11426;DHT22;5769;47.998;7.788;2022-10-15T09:19:01;20.30;74.50
11426;DHT22;5769;47.998;7.788;2022-10-15T09:21:30;20.30;74.50
11426;DHT22;5769;47.998;7.788;2022-10-15T09:24:00;20.30;74.50
11426;DHT22;5769;47.998;7.788;2022-10-15T09:26:28;20.30;74.50
11426;DHT22;5769;47.998;7.788;2022-10-15T09:28:58;20.30;74.50
11426;DHT22;5769;47.998;7.788;2022-10-15T09:31:27;20.30;74.50
11426;DHT22;5769;47.998;7.788;2022-10-15T09:33:56;20.30;74.50
11426;DHT22;5769;47.998;7.788;2022-10-15T09:36:29;20.30;74.50
11426;DHT22;5769;47.998;7.788;2022-10-15T09:39:02;20.20;74.50
11426;DHT22;5769;47.998;7.788;2022-10-15T09:41:32;20.20;74.50
11426;DHT22;5769;47.998;7.788;2022-10-15T09:44:01;20.30;74.50
11426;DHT22;5769;47.998;7.788;2022-10-15T09:46:29;20.30;74.50
11426;DHT22;5769;47.998;7.788;2022-10-15T09:48:59;20.30;74.50
11426;DHT22;5769;47.998;7.788;2022-10-15T09:51:28;20.30;74.60
11426;DHT22;5769;47.998;7.788;2022-10-15T09:53:58;20.30;74.60
11426;DHT22;5769;47.998;7.788;2022-10-15T09:56:30;20.20;74.70
11426;DHT22;5769;47.998;7.788;2022-10-15T09:58:57;20.30;74.70
11426;DHT22;5769;47.998;7.788;2022-10-15T10:01:24;20.30;74.70
11426;DHT22;5769;47.998;7.788;2022-10-15T10:03:52;20.20;74.60
11426;DHT22;5769;47.998;7.788;2022-10-15T10:06:20;20.20;74.60
11426;DHT22;5769;47.998;7.788;2022-10-15T10:08:49;20.30;74.70
11426;DHT22;5769;47.998;7.788;2022-10-15T10:11:15;20.20;74.60
11426;DHT22;5769;47.998;7.788;2022-10-15T10:13:45;20.20;74.60
11426;DHT22;5769;47.998;7.788;2022-10-15T10:16:15;20.20;74.60
11426;DHT22;5769;47.998;7.788;2022-10-15T10:18:42;20.20;74.60
11426;DHT22;5769;47.998;7.788;2022-10-15T10:21:21;20.20;74.60
11426;DHT22;5769;47.998;7.788;2022-10-15T10:23:47;20.20;74.60
11426;DHT22;5769;47.998;7.788;2022-10-15T10:26:14;20.20;74.60
11426;DHT22;5769;47.998;7.788;2022-10-15T10:28:42;20.20;74.60
11426;DHT22;5769;47.998;7.788;2022-10-15T10:31:11;20.20;74.60
11426;DHT22;5769;47.998;7.788;2022-10-15T10:33:41;20.20;74.70
11426;DHT22;5769;47.998;7.788;2022-10-15T10:36:17;20.30;74.70
11426;DHT22;5769;47.998;7.788;2022-10-15T10:38:53;20.20;74.70
11426;DHT22;5769;47.998;7.788;2022-10-15T10:41:20;20.30;74.70
11426;DHT22;5769;47.998;7.788;2022-10-15T10:43:51;20.20;74.60
11426;DHT22;5769;47.998;7.788;2022-10-15T10:46:19;20.20;74.70
11426;DHT22;5769;47.998;7.788;2022-10-15T10:48:48;20.20;74.60
11426;DHT22;5769;47.998;7.788;2022-10-15T10:51:16;20.20;74.60
11426;DHT22;5769;47.998;7.788;2022-10-15T10:53:45;20.20;74.70
11426;DHT22;5769;47.998;7.788;2022-10-15T10:56:12;20.20;74.70
11426;DHT22;5769;47.998;7.788;2022-10-15T10:58:40;20.20;74.70
11426;DHT22;5769;47.998;7.788;2022-10-15T11:01:08;20.30;74.70
11426;DHT22;5769;47.998;7.788;2022-10-15T11:03:37;20.30;74.60
11426;DHT22;5769;47.998;7.788;2022-10-15T11:08:48;20.30;74.90
11426;DHT22;5769;47.998;7.788;2022-10-15T11:11:21;20.30;75.00
11426;DHT22;5769;47.998;7.788;2022-10-15T11:13:53;20.30;74.70
11426;DHT22;5769;47.998;7.788;2022-10-15T11:16:23;20.40;74.80
11426;DHT22;5769;47.998;7.788;2022-10-15T11:18:58;20.40;74.80
11426;DHT22;5769;47.998;7.788;2022-10-15T11:21:30;20.40;74.90
11426;DHT22;5769;47.998;7.788;2022-10-15T11:24:08;20.40;74.90
11426;DHT22;5769;47.998;7.788;2022-10-15T11:26:46;20.40;75.10
11426;DHT22;5769;47.998;7.788;2022-10-15T11:29:15;20.50;75.20
11426;DHT22;5769;47.998;7.788;2022-10-15T11:31:45;20.40;75.20
11426;DHT22;5769;47.998;7.788;2022-10-15T11:34:23;20.50;75.40
11426;DHT22;5769;47.998;7.788;2022-10-15T11:36:55;20.50;75.40
11426;DHT22;5769;47.998;7.788;2022-10-15T11:39:46;20.50;75.60
11426;DHT22;5769;47.998;7.788;2022-10-15T11:42:17;20.50;75.50
11426;DHT22;5769;47.998;7.788;2022-10-15T11:45:08;20.50;75.50
11426;DHT22;5769;47.998;7.788;2022-10-15T11:47:49;20.50;75.80
11426;DHT22;5769;47.998;7.788;2022-10-15T11:50:26;20.60;76.10
11426;DHT22;5769;47.998;7.788;2022-10-15T11:55:51;20.60;75.90
11426;DHT22;5769;47.998;7.788;2022-10-15T11:58:26;20.60;75.90
11426;DHT22;5769;47.998;7.788;2022-10-15T12:00:57;20.60;75.90
11426;DHT22;5769;47.998;7.788;2022-10-15T12:03:26;20.60;75.90
11426;DHT22;5769;47.998;7.788;2022-10-15T12:05:58;20.60;75.90
11426;DHT22;5769;47.998;7.788;2022-10-15T12:08:29;20.60;76.00
11426;DHT22;5769;47.998;7.788;2022-10-15T12:11:13;20.70;76.00
11426;DHT22;5769;47.998;7.788;2022-10-15T12:13:44;20.70;76.10
11426;DHT22;5769;47.998;7.788;2022-10-15T12:16:21;20.60;75.70
11426;DHT22;5769;47.998;7.788;2022-10-15T12:18:56;20.60;75.80
11426;DHT22;5769;47.998;7.788;2022-10-15T12:21:33;20.60;76.30
11426;DHT22;5769;47.998;7.788;2022-10-15T12:24:01;20.60;75.90
11426;DHT22;5769;47.998;7.788;2022-10-15T12:26:29;20.60;76.00
11426;DHT22;5769;47.998;7.788;2022-10-15T12:28:59;20.50;76.10
11426;DHT22;5769;47.998;7.788;2022-10-15T12:31:42;20.50;76.10
11426;DHT22;5769;47.998;7.788;2022-10-15T12:34:30;20.60;76.60
11426;DHT22;5769;47.998;7.788;2022-10-15T12:37:01;20.50;76.10
11426;DHT22;5769;47.998;7.788;2022-10-15T12:39:30;20.50;76.10
11426;DHT22;5769;47.998;7.788;2022-10-15T12:41:57;20.50;76.10
11426;DHT22;5769;47.998;7.788;2022-10-15T12:44:27;20.50;76.10
11426;DHT22;5769;47.998;7.788;2022-10-15T12:46:55;20.50;76.10
11426;DHT22;5769;47.998;7.788;2022-10-15T12:50:03;20.50;76.10
11426;DHT22;5769;47.998;7.788;2022-10-15T12:52:57;20.50;76.10
11426;DHT22;5769;47.998;7.788;2022-10-15T12:55:27;20.50;76.20
11426;DHT22;5769;47.998;7.788;2022-10-15T12:57:57;20.50;76.10
11426;DHT22;5769;47.998;7.788;2022-10-15T13:00:45;20.50;76.10
11426;DHT22;5769;47.998;7.788;2022-10-15T13:03:32;20.50;76.20
11426;DHT22;5769;47.998;7.788;2022-10-15T13:06:13;20.50;76.10
11426;DHT22;5769;47.998;7.788;2022-10-15T13:08:44;20.40;76.20
11426;DHT22;5769;47.998;7.788;2022-10-15T13:11:19;20.40;76.20
11426;DHT22;5769;47.998;7.788;2022-10-15T13:13:48;20.50;76.20
11426;DHT22;5769;47.998;7.788;2022-10-15T13:16:16;20.40;76.20
11426;DHT22;5769;47.998;7.788;2022-10-15T13:18:48;20.40;76.20
11426;DHT22;5769;47.998;7.788;2022-10-15T13:21:16;20.40;76.30
11426;DHT22;5769;47.998;7.788;2022-10-15T13:23:48;20.40;76.20
11426;DHT22;5769;47.998;7.788;2022-10-15T13:26:19;20.40;76.20
11426;DHT22;5769;47.998;7.788;2022-10-15T13:28:47;20.40;76.20
11426;DHT22;5769;47.998;7.788;2022-10-15T13:31:20;20.40;76.20
11426;DHT22;5769;47.998;7.788;2022-10-15T13:33:50;20.40;76.00
11426;DHT22;5769;47.998;7.788;2022-10-15T13:36:20;20.40;76.10
11426;DHT22;5769;47.998;7.788;2022-10-15T13:38:58;20.40;76.00
11426;DHT22;5769;47.998;7.788;2022-10-15T13:41:26;20.40;76.10
11426;DHT22;5769;47.998;7.788;2022-10-15T13:43:54;20.40;76.20
11426;DHT22;5769;47.998;7.788;2022-10-15T13:46:24;20.40;76.00
11426;DHT22;5769;47.998;7.788;2022-10-15T13:48:56;20.40;76.10
11426;DHT22;5769;47.998;7.788;2022-10-15T13:51:31;20.40;75.90
11426;DHT22;5769;47.998;7.788;2022-10-15T13:54:00;20.40;76.10
11426;DHT22;5769;47.998;7.788;2022-10-15T13:56:28;20.30;76.00
11426;DHT22;5769;47.998;7.788;2022-10-15T13:58:57;20.30;75.90
11426;DHT22;5769;47.998;7.788;2022-10-15T14:01:26;20.30;76.00
11426;DHT22;5769;47.998;7.788;2022-10-15T14:03:55;20.40;76.00
11426;DHT22;5769;47.998;7.788;2022-10-15T14:06:24;20.40;76.00
11426;DHT22;5769;47.998;7.788;2022-10-15T14:08:52;20.30;76.70
11426;DHT22;5769;47.998;7.788;2022-10-15T14:11:21;20.40;76.00
11426;DHT22;5769;47.998;7.788;2022-10-15T14:13:49;20.30;76.00
11426;DHT22;5769;47.998;7.788;2022-10-15T14:16:19;20.40;76.00
11426;DHT22;5769;47.998;7.788;2022-10-15T14:18:49;20.40;75.90
11426;DHT22;5769;47.998;7.788;2022-10-15T14:21:18;20.40;75.90
11426;DHT22;5769;47.998;7.788;2022-10-15T14:23:46;20.40;75.80
11426;DHT22;5769;47.998;7.788;2022-10-15T14:26:14;20.40;76.20
11426;DHT22;5769;47.998;7.788;2022-10-15T14:28:48;20.40;76.50
11426;DHT22;5769;47.998;7.788;2022-10-15T14:31:31;20.40;76.50
11426;DHT22;5769;47.998;7.788;2022-10-15T14:33:58;20.40;76.50
11426;DHT22;5769;47.998;7.788;2022-10-15T14:36:28;20.30;76.40
11426;DHT22;5769;47.998;7.788;2022-10-15T14:39:17;20.40;76.50
11426;DHT22;5769;47.998;7.788;2022-10-15T14:41:56;20.40;76.90
11426;DHT22;5769;47.998;7.788;2022-10-15T14:44:23;20.40;77.30
11426;DHT22;5769;47.998;7.788;2022-10-15T14:46:52;20.40;77.50
11426;DHT22;5769;47.998;7.788;2022-10-15T14:49:25;20.30;77.30
11426;DHT22;5769;47.998;7.788;2022-10-15T14:51:59;20.40;77.20
11426;DHT22;5769;47.998;7.788;2022-10-15T14:54:32;20.40;77.30
11426;DHT22;5769;47.998;7.788;2022-10-15T14:57:01;20.40;77.10
11426;DHT22;5769;47.998;7.788;2022-10-15T14:59:31;20.30;76.90
11426;DHT22;5769;47.998;7.788;2022-10-15T15:02:00;20.30;77.00
11426;DHT22;5769;47.998;7.788;2022-10-15T15:04:39;20.40;77.20
11426;DHT22;5769;47.998;7.788;2022-10-15T15:07:17;20.40;77.30
11426;DHT22;5769;47.998;7.788;2022-10-15T15:09:49;20.40;77.30
11426;DHT22;5769;47.998;7.788;2022-10-15T15:12:20;20.40;77.30
11426;DHT22;5769;47.998;7.788;2022-10-15T15:14:47;20.40;77.30
11426;DHT22;5769;47.998;7.788;2022-10-15T15:17:16;20.40;77.30
11426;DHT22;5769;47.998;7.788;2022-10-15T15:19:45;20.30;77.20
11426;DHT22;5769;47.998;7.788;2022-10-15T15:22:14;20.40;77.50
11426;DHT22;5769;47.998;7.788;2022-10-15T15:24:45;20.40;77.30
11426;DHT22;5769;47.998;7.788;2022-10-15T15:27:22;20.30;77.40
11426;DHT22;5769;47.998;7.788;2022-10-15T15:29:50;20.40;77.50
11426;DHT22;5769;47.998;7.788;2022-10-15T15:32:21;20.40;77.70
11426;DHT22;5769;47.998;7.788;2022-10-15T15:34:50;20.40;78.00
11426;DHT22;5769;47.998;7.788;2022-10-15T15:37:18;20.40;77.90
11426;DHT22;5769;47.998;7.788;2022-10-15T15:39:46;20.40;77.90
11426;DHT22;5769;47.998;7.788;2022-10-15T15:42:14;20.40;77.90
11426;DHT22;5769;47.998;7.788;2022-10-15T15:44:43;20.40;77.70
11426;DHT22;5769;47.998;7.788;2022-10-15T15:47:10;20.40;77.70
11426;DHT22;5769;47.998;7.788;2022-10-15T15:49:37;20.40;77.60
11426;DHT22;5769;47.998;7.788;2022-10-15T15:52:04;20.40;77.60
11426;DHT22;5769;47.998;7.788;2022-10-15T15:54:31;20.30;77.70
11426;DHT22;5769;47.998;7.788;2022-10-15T15:56:57;20.40;77.60
11426;DHT22;5769;47.998;7.788;2022-10-15T15:59:24;20.40;77.80
11426;DHT22;5769;47.998;7.788;2022-10-15T16:01:52;20.30;77.80
11426;DHT22;5769;47.998;7.788;2022-10-15T16:04:19;20.40;77.90
11426;DHT22;5769;47.998;7.788;2022-10-15T16:06:46;20.40;78.00